createdAt,value
2022-11-14T00:00:34.485Z,6.76
2022-11-14T00:03:03.153Z,6.76
2022-11-14T00:05:29.904Z,6.72
2022-11-14T00:07:56.671Z,6.72
2022-11-14T00:10:23.867Z,6.70
2022-11-14T00:12:50.550Z,6.76
2022-11-14T00:15:17.562Z,6.81
2022-11-14T00:17:44.191Z,6.71
2022-11-14T00:20:12.437Z,7.29
2022-11-14T00:22:39.182Z,7.53
2022-11-14T00:25:06.211Z,7.25
2022-11-14T00:27:32.794Z,7.14
2022-11-14T00:29:59.431Z,7.04
2022-11-14T00:32:26.180Z,6.88
2022-11-14T00:34:52.775Z,6.70
2022-11-14T00:37:19.361Z,6.65
2022-11-14T00:39:46.004Z,6.59
2022-11-14T00:42:12.694Z,6.62
2022-11-14T00:44:39.423Z,6.76
2022-11-14T00:47:06.089Z,6.78
2022-11-14T00:49:32.705Z,6.75
2022-11-14T00:51:59.437Z,6.76
2022-11-14T00:54:26.810Z,6.63
2022-11-14T00:56:53.461Z,6.50
2022-11-14T00:59:20.192Z,6.41
2022-11-14T01:01:46.848Z,6.42
2022-11-14T01:04:13.543Z,6.65
2022-11-14T01:06:40.288Z,6.38
2022-11-14T01:09:06.981Z,6.34
2022-11-14T01:11:33.746Z,6.19
2022-11-14T01:14:00.459Z,6.26
2022-11-14T01:16:27.156Z,6.12
2022-11-14T01:18:53.873Z,6.07
2022-11-14T01:21:20.523Z,6.11
2022-11-14T01:23:47.131Z,6.05
2022-11-14T01:26:14.646Z,5.87
2022-11-14T01:28:41.501Z,5.79
2022-11-14T01:31:13.381Z,5.85
2022-11-14T01:33:40.041Z,5.94
2022-11-14T01:36:07.018Z,5.96
2022-11-14T01:38:34.041Z,5.87
2022-11-14T01:41:01.130Z,5.85
2022-11-14T01:43:33.049Z,5.93
2022-11-14T01:46:27.819Z,5.87
2022-11-14T01:48:58.740Z,5.71
2022-11-14T01:51:29.819Z,5.71
2022-11-14T01:53:58.702Z,5.80
2022-11-14T01:56:33.610Z,5.79
2022-11-14T01:59:07.936Z,5.84
2022-11-14T02:01:37.193Z,5.82
2022-11-14T02:04:06.742Z,5.79
2022-11-14T02:06:34.144Z,5.72
2022-11-14T02:09:04.487Z,5.77
2022-11-14T02:11:33.831Z,5.77
2022-11-14T02:14:00.975Z,5.77
2022-11-14T02:16:27.838Z,5.76
2022-11-14T02:18:54.569Z,5.81
2022-11-14T02:21:21.811Z,5.85
2022-11-14T02:23:48.419Z,5.74
2022-11-14T02:26:22.183Z,5.74
2022-11-14T02:28:48.979Z,5.93
2022-11-14T02:31:16.027Z,5.82
2022-11-14T02:33:42.839Z,5.64
2022-11-14T02:36:09.618Z,5.56
2022-11-14T02:38:36.819Z,5.52
2022-11-14T02:41:03.961Z,5.56
2022-11-14T02:43:30.577Z,5.65
2022-11-14T02:46:01.392Z,5.66
2022-11-14T02:48:31.387Z,5.63
2022-11-14T02:50:58.233Z,5.53
2022-11-14T02:53:25.047Z,5.49
2022-11-14T02:55:51.877Z,5.54
2022-11-14T02:58:18.582Z,5.51
2022-11-14T03:01:13.383Z,5.53
2022-11-14T03:03:31.889Z,5.46
2022-11-14T03:06:02.693Z,5.48
2022-11-14T03:08:29.778Z,5.46
2022-11-14T03:10:57.001Z,5.46
2022-11-14T03:13:23.730Z,5.46
2022-11-14T03:15:50.349Z,5.43
2022-11-14T03:18:17.086Z,5.47
2022-11-14T03:20:43.749Z,5.45
2022-11-14T03:23:10.839Z,5.41
2022-11-14T03:25:37.504Z,5.38
2022-11-14T03:28:04.401Z,5.43
2022-11-14T03:30:31.590Z,5.36
2022-11-14T03:32:58.379Z,5.31
2022-11-14T03:35:25.057Z,5.24
2022-11-14T03:37:56.021Z,5.40
2022-11-14T03:40:23.112Z,5.23
2022-11-14T03:42:49.859Z,5.14
2022-11-14T03:45:16.662Z,5.08
2022-11-14T03:47:43.460Z,5.05
2022-11-14T03:50:10.149Z,5.02
2022-11-14T03:52:36.861Z,5.09
2022-11-14T03:55:03.714Z,5.13
2022-11-14T03:57:30.400Z,5.11
2022-11-14T03:59:57.111Z,5.02
2022-11-14T04:02:23.801Z,5.01
2022-11-14T04:04:50.454Z,5.00
2022-11-14T04:07:17.311Z,5.09
2022-11-14T04:09:45.023Z,5.10
2022-11-14T04:12:15.701Z,4.90
2022-11-14T04:14:42.667Z,4.80
2022-11-14T04:17:09.498Z,4.80
2022-11-14T04:19:36.229Z,4.79
2022-11-14T04:22:03.168Z,4.86
2022-11-14T04:24:29.876Z,4.82
2022-11-14T04:26:56.521Z,4.92
2022-11-14T04:29:23.576Z,4.92
2022-11-14T04:31:50.530Z,4.97
2022-11-14T04:34:17.320Z,4.99
2022-11-14T04:36:44.439Z,5.03
2022-11-14T04:39:11.127Z,5.04
2022-11-14T04:41:37.842Z,5.19
2022-11-14T04:44:04.530Z,5.09
2022-11-14T04:46:31.229Z,5.13
2022-11-14T04:48:57.923Z,5.10
2022-11-14T04:51:24.622Z,5.00
2022-11-14T04:53:51.306Z,5.12
2022-11-14T04:56:18.051Z,4.84
2022-11-14T04:58:44.721Z,4.66
2022-11-14T05:01:12.439Z,4.68
2022-11-14T05:03:39.179Z,4.59
2022-11-14T05:06:06.020Z,4.41
2022-11-14T05:08:33.110Z,4.36
2022-11-14T05:10:59.981Z,4.34
2022-11-14T05:13:26.730Z,4.36
2022-11-14T05:15:53.411Z,4.32
2022-11-14T05:18:20.139Z,4.42
2022-11-14T05:20:46.726Z,4.62
2022-11-14T05:23:20.437Z,4.59
2022-11-14T05:25:47.656Z,4.60
2022-11-14T05:28:14.350Z,4.61
2022-11-14T05:30:40.917Z,4.70
2022-11-14T05:33:07.495Z,4.55
2022-11-14T05:35:34.064Z,4.59
2022-11-14T05:38:02.353Z,4.40
2022-11-14T05:40:28.958Z,4.31
2022-11-14T05:42:56.778Z,4.33
2022-11-14T05:45:23.404Z,4.37
2022-11-14T05:47:53.878Z,4.44
2022-11-14T05:50:20.626Z,4.52
2022-11-14T05:52:47.270Z,4.60
2022-11-14T05:55:13.904Z,4.60
2022-11-14T05:57:40.618Z,4.67
2022-11-14T06:00:09.348Z,4.73
2022-11-14T06:02:36.043Z,4.68
2022-11-14T06:05:02.855Z,4.62
2022-11-14T06:07:29.583Z,4.65
2022-11-14T06:09:56.316Z,4.70
2022-11-14T06:12:22.975Z,4.71
2022-11-14T06:14:49.667Z,4.78
2022-11-14T06:17:16.368Z,4.86
2022-11-14T06:19:43.050Z,4.93
2022-11-14T06:22:09.756Z,4.83
2022-11-14T06:24:36.587Z,4.86
2022-11-14T06:27:03.329Z,4.87
2022-11-14T06:29:34.331Z,4.67
2022-11-14T06:32:02.252Z,4.63
2022-11-14T06:34:29.018Z,4.68
2022-11-14T06:36:55.748Z,4.70
2022-11-14T06:39:22.408Z,5.48
2022-11-14T06:41:49.189Z,7.08
2022-11-14T06:44:15.976Z,8.24
2022-11-14T06:46:42.667Z,7.24
2022-11-14T06:49:09.355Z,6.49
2022-11-14T06:51:36.060Z,6.15
2022-11-14T06:54:02.830Z,5.95
2022-11-14T06:56:29.527Z,5.83
2022-11-14T06:58:56.308Z,5.78
2022-11-14T07:01:26.007Z,5.60
2022-11-14T07:03:52.699Z,5.23
2022-11-14T07:06:24.859Z,5.13
2022-11-14T07:08:52.728Z,5.51
2022-11-14T07:11:25.457Z,5.57
2022-11-14T07:13:57.890Z,5.42
2022-11-14T07:16:32.318Z,5.40
2022-11-14T07:18:59.991Z,5.17
2022-11-14T07:21:28.210Z,5.41
2022-11-14T07:23:55.377Z,5.54
2022-11-14T07:26:22.137Z,5.42
2022-11-14T07:28:52.885Z,5.49
2022-11-14T07:31:21.757Z,5.86
2022-11-14T07:33:48.634Z,6.27
2022-11-14T07:36:16.457Z,6.64
2022-11-14T07:38:43.395Z,7.92
2022-11-14T07:41:12.236Z,8.44
2022-11-14T07:43:39.555Z,8.92
2022-11-14T07:46:14.847Z,9.33
2022-11-14T07:48:41.850Z,9.33
2022-11-14T07:51:13.129Z,9.71
2022-11-14T07:53:39.875Z,9.73
2022-11-14T07:56:11.308Z,10.01
2022-11-14T07:58:39.300Z,8.87
2022-11-14T08:01:07.272Z,8.73
2022-11-14T08:03:34.641Z,8.91
2022-11-14T08:06:06.176Z,8.82
2022-11-14T08:08:33.351Z,8.47
2022-11-14T08:11:00.712Z,8.43
2022-11-14T08:13:32.607Z,8.95
2022-11-14T08:16:02.359Z,9.70
2022-11-14T08:18:29.444Z,10.27
2022-11-14T08:20:57.757Z,10.64
2022-11-14T08:23:24.528Z,10.92
2022-11-14T08:25:51.418Z,11.31
2022-11-14T08:28:18.139Z,11.18
2022-11-14T08:30:44.827Z,10.98
2022-11-14T08:33:11.809Z,11.27
2022-11-14T08:35:38.609Z,11.38
2022-11-14T08:38:05.510Z,11.89
2022-11-14T08:40:32.437Z,12.02
2022-11-14T08:43:01.188Z,12.44
2022-11-14T08:45:28.770Z,13.07
2022-11-14T08:47:55.785Z,13.67
2022-11-14T08:50:22.588Z,13.97
2022-11-14T08:52:51.136Z,14.16
2022-11-14T08:55:18.667Z,14.43
2022-11-14T08:57:49.162Z,14.13
2022-11-14T09:00:16.959Z,13.94
2022-11-14T09:02:43.772Z,13.89
2022-11-14T09:05:10.618Z,13.81
2022-11-14T09:07:37.447Z,14.00
2022-11-14T09:10:04.874Z,14.45
2022-11-14T09:12:31.672Z,14.18
2022-11-14T09:14:58.356Z,14.34
2022-11-14T09:17:25.076Z,14.51
2022-11-14T09:19:51.846Z,14.45
2022-11-14T09:22:18.696Z,14.36
2022-11-14T09:24:47.516Z,14.30
2022-11-14T09:27:14.367Z,13.78
2022-11-14T09:29:41.118Z,14.21
2022-11-14T09:32:07.868Z,15.24
2022-11-14T09:34:34.587Z,15.51
2022-11-14T09:37:01.314Z,15.40
2022-11-14T09:39:27.984Z,15.69
2022-11-14T09:42:16.841Z,15.00
2022-11-14T09:44:48.300Z,14.72
2022-11-14T09:47:28.246Z,14.15
2022-11-14T09:49:59.808Z,14.00
2022-11-14T09:52:32.097Z,14.14
2022-11-14T09:55:01.585Z,13.50
2022-11-14T09:57:29.034Z,13.44
2022-11-14T09:59:56.228Z,13.70
2022-11-14T10:02:49.425Z,14.52
2022-11-14T10:05:23.755Z,15.24
2022-11-14T10:08:23.515Z,14.42
2022-11-14T10:10:52.317Z,14.47
2022-11-14T10:13:47.489Z,14.14
2022-11-14T10:16:24.317Z,14.34
2022-11-14T10:19:12.316Z,15.24
2022-11-14T10:22:14.098Z,15.35
2022-11-14T10:24:45.437Z,14.77
2022-11-14T10:27:19.726Z,14.73
2022-11-14T10:30:25.506Z,15.05
2022-11-14T10:33:19.936Z,14.86
2022-11-14T10:35:53.389Z,14.83
2022-11-14T10:38:34.247Z,14.69
2022-11-14T10:41:09.397Z,14.46
2022-11-14T10:43:42.176Z,14.60
2022-11-14T10:46:21.993Z,15.69
2022-11-14T10:48:50.835Z,16.49
2022-11-14T10:51:29.322Z,16.67
2022-11-14T10:54:00.491Z,16.15
2022-11-14T10:56:27.287Z,16.14
2022-11-14T10:58:53.977Z,16.11
2022-11-14T11:01:42.055Z,15.63
2022-11-14T11:04:34.171Z,15.42
2022-11-14T11:07:07.226Z,15.63
2022-11-14T11:09:57.595Z,16.41
2022-11-14T11:12:40.011Z,16.37
2022-11-14T11:15:24.496Z,16.03
2022-11-14T11:17:58.116Z,15.71
2022-11-14T11:20:27.387Z,15.36
2022-11-14T11:23:18.037Z,15.30
2022-11-14T11:25:44.748Z,15.86
2022-11-14T11:28:13.052Z,15.59
2022-11-14T11:30:40.375Z,15.45
2022-11-14T11:33:24.139Z,15.21
2022-11-14T11:35:55.424Z,15.40
2022-11-14T11:38:22.345Z,15.16
2022-11-14T11:40:51.886Z,15.09
2022-11-14T11:43:43.595Z,14.92
2022-11-14T11:46:16.246Z,15.02
2022-11-14T11:48:46.525Z,15.59
2022-11-14T11:51:17.707Z,15.70
2022-11-14T11:53:58.766Z,15.92
2022-11-14T11:56:28.014Z,15.79
2022-11-14T11:59:01.456Z,15.89
2022-11-14T12:01:28.097Z,16.03
2022-11-14T12:03:55.104Z,16.43
2022-11-14T12:06:27.370Z,16.94
2022-11-14T12:09:18.487Z,17.28
2022-11-14T12:12:06.615Z,17.39
2022-11-14T12:14:54.378Z,17.58
2022-11-14T12:17:42.575Z,17.31
2022-11-14T12:20:20.687Z,17.35
2022-11-14T12:22:56.122Z,17.51
2022-11-14T12:25:44.112Z,17.38
2022-11-14T12:28:17.087Z,16.59
2022-11-14T12:30:48.585Z,16.57
2022-11-14T12:33:30.796Z,16.07
2022-11-14T12:36:03.254Z,16.27
2022-11-14T12:38:35.244Z,16.26
2022-11-14T12:41:02.576Z,16.26
2022-11-14T12:43:38.766Z,16.45
2022-11-14T12:46:11.705Z,15.97
2022-11-14T12:48:46.175Z,15.53
2022-11-14T12:51:25.497Z,15.82
2022-11-14T12:53:56.655Z,15.50
2022-11-14T12:56:23.400Z,15.51
2022-11-14T12:59:11.859Z,15.50
2022-11-14T13:01:53.594Z,15.16
2022-11-14T13:04:29.494Z,15.35
2022-11-14T13:07:34.677Z,15.29
2022-11-14T13:10:19.850Z,15.33
2022-11-14T13:13:31.112Z,14.98
2022-11-14T13:16:17.395Z,14.87
2022-11-14T13:19:38.117Z,14.96
2022-11-14T13:22:16.803Z,14.85
2022-11-14T13:25:09.684Z,14.62
2022-11-14T13:28:05.946Z,14.66
2022-11-14T13:31:12.646Z,14.80
2022-11-14T13:33:46.330Z,14.80
2022-11-14T13:36:32.056Z,14.99
2022-11-14T13:39:50.126Z,15.27
2022-11-14T13:42:48.937Z,15.03
2022-11-14T13:45:34.256Z,15.32
2022-11-14T13:48:15.215Z,15.21
2022-11-14T13:50:43.181Z,15.29
2022-11-14T13:53:16.627Z,14.95
2022-11-14T13:56:04.898Z,14.82
2022-11-14T13:58:50.697Z,15.10
2022-11-14T14:01:28.049Z,15.27
2022-11-14T14:04:48.945Z,14.95
2022-11-14T14:07:27.433Z,14.17
2022-11-14T14:10:15.235Z,14.19
2022-11-14T14:13:06.755Z,13.90
2022-11-14T14:15:59.268Z,13.74
2022-11-14T14:19:04.731Z,13.55
2022-11-14T14:22:08.805Z,13.32
2022-11-14T14:24:54.134Z,13.02
2022-11-14T14:27:38.274Z,12.87
2022-11-14T14:30:12.124Z,12.73
2022-11-14T14:32:39.252Z,12.52
2022-11-14T14:35:25.985Z,12.10
2022-11-14T14:37:54.117Z,11.77
2022-11-14T14:40:35.436Z,11.72
2022-11-14T14:43:05.185Z,11.56
2022-11-14T14:45:44.725Z,11.31
2022-11-14T14:48:16.708Z,11.33
2022-11-14T14:50:49.614Z,11.37
2022-11-14T14:53:27.716Z,11.08
2022-11-14T14:56:02.495Z,10.93
2022-11-14T14:58:33.077Z,10.93
2022-11-14T15:01:13.104Z,11.09
2022-11-14T15:03:46.895Z,11.03
2022-11-14T15:06:30.698Z,10.85
2022-11-14T15:08:59.910Z,10.53
2022-11-14T15:11:32.261Z,10.42
2022-11-14T15:13:59.543Z,10.32
2022-11-14T15:16:26.555Z,10.35
2022-11-14T15:18:54.848Z,10.44
2022-11-14T15:21:23.217Z,10.55
2022-11-14T15:24:13.885Z,10.52
2022-11-14T15:26:44.545Z,10.39
2022-11-14T15:29:23.075Z,10.37
2022-11-14T15:31:54.681Z,10.13
2022-11-14T15:34:24.876Z,9.90
2022-11-14T15:37:19.045Z,9.92
2022-11-14T15:39:46.854Z,9.75
2022-11-14T15:42:29.017Z,9.51
2022-11-14T15:44:56.282Z,9.70
2022-11-14T15:47:24.169Z,9.60
2022-11-14T15:50:14.171Z,9.35
2022-11-14T15:52:48.276Z,9.34
2022-11-14T15:55:24.450Z,9.38
2022-11-14T15:58:00.886Z,9.26
2022-11-14T16:00:45.700Z,9.29
2022-11-14T16:03:14.685Z,9.28
2022-11-14T16:05:41.605Z,9.25
2022-11-14T16:08:10.784Z,9.15
2022-11-14T16:10:39.152Z,9.10
2022-11-14T16:13:06.458Z,8.87
2022-11-14T16:15:33.120Z,8.68
2022-11-14T16:17:59.843Z,8.61
2022-11-14T16:20:29.210Z,8.80
2022-11-14T16:22:58.658Z,8.66
2022-11-14T16:25:27.492Z,8.72
2022-11-14T16:27:54.365Z,8.72
2022-11-14T16:30:22.495Z,8.85
2022-11-14T16:32:50.334Z,8.88
2022-11-14T16:35:27.774Z,8.74
2022-11-14T16:37:55.272Z,8.62
2022-11-14T16:40:27.548Z,8.48
2022-11-14T16:42:55.235Z,8.25
2022-11-14T16:45:22.162Z,8.19
2022-11-14T16:47:49.677Z,8.10
2022-11-14T16:50:17.460Z,8.21
2022-11-14T16:52:44.276Z,8.43
2022-11-14T16:55:12.085Z,8.51
2022-11-14T16:57:39.494Z,8.44
2022-11-14T17:00:08.686Z,8.44
2022-11-14T17:02:35.385Z,8.44
2022-11-14T17:05:02.104Z,8.14
2022-11-14T17:07:33.407Z,7.94
2022-11-14T17:10:00.879Z,8.00
2022-11-14T17:12:28.117Z,8.02
2022-11-14T17:14:54.853Z,8.03
2022-11-14T17:17:21.879Z,7.95
2022-11-14T17:19:48.975Z,7.87
2022-11-14T17:22:17.543Z,8.04
2022-11-14T17:24:44.804Z,8.08
2022-11-14T17:27:13.215Z,8.17
2022-11-14T17:29:40.155Z,8.18
2022-11-14T17:32:06.978Z,8.33
2022-11-14T17:34:33.689Z,8.29
2022-11-14T17:37:00.327Z,8.19
2022-11-14T17:39:27.172Z,8.20
2022-11-14T17:41:53.927Z,8.18
2022-11-14T17:44:20.678Z,8.18
2022-11-14T17:46:48.385Z,8.17
2022-11-14T17:49:15.164Z,8.21
2022-11-14T17:51:41.827Z,8.20
2022-11-14T17:54:09.098Z,8.10
2022-11-14T17:56:37.277Z,8.09
2022-11-14T17:59:05.766Z,7.99
2022-11-14T18:01:32.648Z,7.96
2022-11-14T18:04:04.499Z,7.97
2022-11-14T18:06:33.435Z,8.06
2022-11-14T18:09:04.967Z,8.09
2022-11-14T18:11:31.818Z,8.16
2022-11-14T18:13:58.649Z,8.20
2022-11-14T18:16:31.446Z,8.20
2022-11-14T18:19:06.535Z,8.18
2022-11-14T18:21:33.295Z,8.25
2022-11-14T18:24:00.402Z,8.12
2022-11-14T18:26:28.715Z,8.00
2022-11-14T18:29:01.095Z,7.90
2022-11-14T18:31:28.315Z,7.95
2022-11-14T18:33:55.239Z,7.92
2022-11-14T18:36:22.254Z,7.82
2022-11-14T18:38:49.277Z,7.75
2022-11-14T18:41:21.243Z,7.77
2022-11-14T18:43:48.556Z,7.89
2022-11-14T18:46:20.376Z,7.94
2022-11-14T18:48:49.055Z,8.04
2022-11-14T18:51:18.766Z,8.14
2022-11-14T18:53:45.763Z,8.18
2022-11-14T18:56:15.843Z,8.18
2022-11-14T18:58:43.505Z,7.82
2022-11-14T19:01:11.242Z,7.68
2022-11-14T19:03:38.234Z,7.61
2022-11-14T19:06:07.105Z,7.66
2022-11-14T19:08:33.955Z,7.72
2022-11-14T19:11:05.015Z,7.73
2022-11-14T19:13:31.923Z,7.68
2022-11-14T19:16:03.463Z,7.74
2022-11-14T19:18:31.416Z,7.76
2022-11-14T19:20:59.906Z,7.80
2022-11-14T19:23:27.090Z,7.72
2022-11-14T19:26:02.789Z,7.68
2022-11-14T19:28:29.604Z,7.53
2022-11-14T19:31:04.021Z,7.45
2022-11-14T19:33:31.684Z,7.54
2022-11-14T19:36:04.520Z,7.58
2022-11-14T19:38:31.217Z,7.62
2022-11-14T19:41:03.514Z,7.56
2022-11-14T19:43:31.438Z,7.61
2022-11-14T19:46:05.712Z,7.57
2022-11-14T19:48:33.202Z,7.36
2022-11-14T19:51:04.295Z,7.28
2022-11-14T19:53:33.687Z,7.41
2022-11-14T19:56:06.328Z,7.29
2022-11-14T19:58:35.935Z,7.29
2022-11-14T20:01:03.913Z,7.25
2022-11-14T20:03:31.204Z,7.38
2022-11-14T20:05:58.170Z,7.41
2022-11-14T20:08:25.312Z,7.43
2022-11-14T20:11:03.079Z,7.51
2022-11-14T20:13:31.148Z,7.53
2022-11-14T20:15:58.174Z,7.53
2022-11-14T20:18:24.922Z,7.43
2022-11-14T20:20:51.607Z,7.48
2022-11-14T20:23:18.240Z,7.47
2022-11-14T20:25:51.191Z,7.42
2022-11-14T20:28:17.812Z,7.28
2022-11-14T20:30:44.444Z,7.33
2022-11-14T20:33:11.355Z,7.25
2022-11-14T20:35:38.257Z,7.13
2022-11-14T20:38:05.523Z,7.04
2022-11-14T20:40:32.388Z,6.77
2022-11-14T20:42:59.700Z,6.74
2022-11-14T20:45:27.171Z,6.78
2022-11-14T20:47:54.790Z,6.74
2022-11-14T20:50:21.664Z,6.71
2022-11-14T20:52:48.516Z,6.79
2022-11-14T20:55:15.935Z,6.63
2022-11-14T20:57:42.897Z,6.56
2022-11-14T21:00:10.241Z,6.59
2022-11-14T21:02:37.037Z,6.32
2022-11-14T21:05:03.936Z,6.42
2022-11-14T21:07:30.600Z,6.34
2022-11-14T21:10:15.740Z,6.35
2022-11-14T21:12:45.695Z,6.32
2022-11-14T21:15:16.113Z,6.21
2022-11-14T21:17:42.684Z,6.09
2022-11-14T21:20:09.819Z,5.97
2022-11-14T21:22:36.389Z,6.03
2022-11-14T21:25:03.954Z,5.98
2022-11-14T21:27:30.692Z,5.94
2022-11-14T21:29:57.288Z,5.98
2022-11-14T21:32:23.873Z,5.87
2022-11-14T21:34:50.459Z,5.66
2022-11-14T21:37:17.071Z,5.82
2022-11-14T21:39:43.625Z,5.78
2022-11-14T21:42:13.038Z,5.78
2022-11-14T21:44:43.714Z,5.50
2022-11-14T21:47:10.314Z,5.52
2022-11-14T21:49:36.892Z,5.50
2022-11-14T21:52:03.521Z,5.49
2022-11-14T21:54:30.110Z,5.65
2022-11-14T21:56:56.701Z,5.68
2022-11-14T21:59:27.461Z,5.54
2022-11-14T22:02:12.793Z,5.56
2022-11-14T22:04:39.555Z,5.48
2022-11-14T22:07:07.426Z,5.34
2022-11-14T22:09:34.501Z,5.34
2022-11-14T22:12:01.321Z,5.26
2022-11-14T22:14:28.058Z,5.22
2022-11-14T22:16:54.751Z,5.10
2022-11-14T22:19:21.710Z,4.94
2022-11-14T22:21:48.516Z,5.05
2022-11-14T22:24:15.205Z,5.13
2022-11-14T22:26:41.837Z,5.02
2022-11-14T22:29:08.817Z,5.10
2022-11-14T22:31:35.772Z,5.14
2022-11-14T22:34:02.661Z,5.16
2022-11-14T22:36:29.481Z,5.22
2022-11-14T22:38:56.902Z,5.27
2022-11-14T22:41:30.725Z,5.18
2022-11-14T22:43:59.331Z,5.26
2022-11-14T22:46:27.444Z,5.35
2022-11-14T22:48:54.833Z,5.29
2022-11-14T22:51:23.646Z,5.27
2022-11-14T22:53:57.528Z,5.30
2022-11-14T22:56:26.353Z,5.33
2022-11-14T22:58:52.969Z,5.38
2022-11-14T23:01:22.151Z,5.35
2022-11-14T23:03:53.456Z,5.42
2022-11-14T23:06:20.111Z,5.49
2022-11-14T23:08:46.791Z,5.58
2022-11-14T23:11:16.465Z,5.40
2022-11-14T23:13:48.017Z,5.34
2022-11-14T23:16:17.595Z,5.48
2022-11-14T23:18:44.511Z,5.41
2022-11-14T23:21:16.475Z,5.40
2022-11-14T23:23:43.144Z,5.46
2022-11-14T23:26:15.261Z,5.39
2022-11-14T23:28:42.442Z,5.40
2022-11-14T23:31:10.033Z,5.34
2022-11-14T23:33:36.671Z,5.32
2022-11-14T23:36:03.476Z,5.33
2022-11-14T23:38:32.869Z,5.31
2022-11-14T23:41:00.996Z,5.38
2022-11-14T23:43:28.820Z,5.14
2022-11-14T23:45:56.333Z,5.16
2022-11-14T23:48:23.568Z,5.11
2022-11-14T23:50:54.861Z,5.00
2022-11-14T23:53:22.159Z,5.09
2022-11-14T23:55:53.373Z,5.03
2022-11-14T23:58:20.733Z,4.93
